createdAt,value
2023-03-11T00:01:15.553Z,97918.63
2023-03-11T00:04:01.765Z,97960.50
2023-03-11T00:06:48.120Z,97996.31
2023-03-11T00:09:35.376Z,97985.03
2023-03-11T00:12:22.079Z,97981.47
2023-03-11T00:15:09.272Z,97966.88
2023-03-11T00:17:55.994Z,97996.78
2023-03-11T00:20:44.248Z,98004.34
2023-03-11T00:23:30.840Z,97989.72
2023-03-11T00:26:16.997Z,97995.88
2023-03-11T00:29:03.436Z,97997.72
2023-03-11T00:31:50.010Z,98013.22
2023-03-11T00:34:36.365Z,97997.81
2023-03-11T00:37:22.869Z,98002.91
2023-03-11T00:40:14.107Z,98026.84
2023-03-11T00:43:01.256Z,98027.84
2023-03-11T00:45:48.315Z,98027.66
2023-03-11T00:48:35.198Z,98044.84
2023-03-11T00:51:24.886Z,98031.91
2023-03-11T00:54:11.523Z,98010.28
2023-03-11T00:56:57.844Z,98030.78
2023-03-11T00:59:44.171Z,97991.81
2023-03-11T01:02:30.370Z,98034.56
2023-03-11T01:05:19.670Z,98067.97
2023-03-11T01:08:06.250Z,98036.22
2023-03-11T01:10:53.503Z,98054.34
2023-03-11T01:13:40.254Z,98030.31
2023-03-11T01:16:26.564Z,98076.53
2023-03-11T01:19:13.641Z,98020.84
2023-03-11T01:21:59.817Z,98036.25
2023-03-11T01:24:47.269Z,98053.41
2023-03-11T01:27:33.531Z,98027.81
2023-03-11T01:30:23.878Z,98075.88
2023-03-11T01:33:18.744Z,98063.84
2023-03-11T01:36:05.603Z,98085.88
2023-03-11T01:38:51.920Z,98089.19
2023-03-11T01:41:38.262Z,98061.78
2023-03-11T01:44:24.948Z,98071.38
2023-03-11T01:47:11.761Z,98095.19
2023-03-11T01:49:58.871Z,98089.22
2023-03-11T01:52:45.512Z,98064.44
2023-03-11T01:55:32.660Z,98044.66
2023-03-11T01:58:27.220Z,98091.78
2023-03-11T02:01:14.374Z,98062.31
2023-03-11T02:04:03.789Z,98104.34
2023-03-11T02:06:53.724Z,98097.47
2023-03-11T02:09:41.369Z,98094.66
2023-03-11T02:12:31.224Z,98116.06
2023-03-11T02:15:18.121Z,98101.97
2023-03-11T02:18:06.865Z,98133.44
2023-03-11T02:21:05.496Z,98128.81
2023-03-11T02:24:22.983Z,98106.34
2023-03-11T02:27:12.877Z,98111.50
2023-03-11T02:30:00.978Z,98102.56
2023-03-11T02:32:48.564Z,98133.97
2023-03-11T02:35:36.408Z,98120.97
2023-03-11T02:38:23.727Z,98116.63
2023-03-11T02:41:10.798Z,98104.56
2023-03-11T02:43:58.833Z,98060.72
2023-03-11T02:46:46.476Z,98119.59
2023-03-11T02:49:34.633Z,98108.47
2023-03-11T02:52:21.942Z,98125.41
2023-03-11T02:55:09.934Z,98097.53
2023-03-11T02:57:56.183Z,98130.94
2023-03-11T03:00:42.627Z,98111.94
2023-03-11T03:03:29.583Z,98137.47
2023-03-11T03:06:16.171Z,98116.72
2023-03-11T03:09:03.141Z,98128.47
2023-03-11T03:11:49.944Z,98151.63
2023-03-11T03:14:36.567Z,98139.09
2023-03-11T03:17:22.795Z,98151.94
2023-03-11T03:20:12.544Z,98165.66
2023-03-11T03:23:15.888Z,98159.53
2023-03-11T03:26:02.406Z,98134.31
2023-03-11T03:28:49.534Z,98146.28
2023-03-11T03:31:36.303Z,98159.59
2023-03-11T03:34:22.889Z,98164.69
2023-03-11T03:37:09.696Z,98160.28
2023-03-11T03:39:55.994Z,98132.44
2023-03-11T03:42:42.231Z,98136.28
2023-03-11T03:45:28.661Z,98144.00
2023-03-11T03:48:15.496Z,98157.94
2023-03-11T03:51:07.187Z,98187.13
2023-03-11T03:53:54.813Z,98171.09
2023-03-11T03:56:43.240Z,98145.16
2023-03-11T03:59:30.271Z,98195.00
2023-03-11T04:02:18.996Z,98165.69
2023-03-11T04:05:07.138Z,98196.78
2023-03-11T04:07:54.850Z,98167.59
2023-03-11T04:10:41.953Z,98206.63
2023-03-11T04:13:28.618Z,98211.63
2023-03-11T04:16:18.591Z,98189.63
2023-03-11T04:19:05.752Z,98204.81
2023-03-11T04:21:52.583Z,98204.44
2023-03-11T04:24:40.804Z,98189.13
2023-03-11T04:27:27.433Z,98182.16
2023-03-11T04:30:14.160Z,98178.69
2023-03-11T04:33:03.326Z,98173.34
2023-03-11T04:35:50.652Z,98205.47
2023-03-11T04:38:38.150Z,98180.50
2023-03-11T04:41:26.825Z,98202.31
2023-03-11T04:44:14.463Z,98185.69
2023-03-11T04:47:01.220Z,98186.13
2023-03-11T04:49:48.825Z,98114.13
2023-03-11T04:52:35.032Z,98205.66
2023-03-11T04:55:21.276Z,98180.91
2023-03-11T04:58:07.810Z,98208.00
2023-03-11T05:00:56.298Z,98189.84
2023-03-11T05:03:43.447Z,98220.72
2023-03-11T05:06:31.604Z,98201.00
2023-03-11T05:09:19.786Z,98187.22
2023-03-11T05:12:06.613Z,98187.56
2023-03-11T05:14:55.287Z,98178.72
2023-03-11T05:17:42.744Z,98203.34
2023-03-11T05:20:31.158Z,98235.84
2023-03-11T05:23:17.860Z,98211.34
2023-03-11T05:26:04.471Z,98224.09
2023-03-11T05:28:52.147Z,98233.00
2023-03-11T05:31:38.904Z,98250.78
2023-03-11T05:34:25.286Z,98251.63
2023-03-11T05:37:12.849Z,98245.38
2023-03-11T05:39:59.172Z,98241.50
2023-03-11T05:42:45.942Z,98205.09
2023-03-11T05:45:34.295Z,98243.22
2023-03-11T05:48:22.007Z,98197.44
2023-03-11T05:51:10.782Z,98255.78
2023-03-11T05:54:00.527Z,98226.25
2023-03-11T05:56:55.876Z,98229.94
2023-03-11T05:59:43.218Z,98230.78
2023-03-11T06:02:30.033Z,98248.16
2023-03-11T06:05:16.485Z,98257.88
2023-03-11T06:08:05.021Z,98266.75
2023-03-11T06:10:51.404Z,98270.91
2023-03-11T06:13:40.285Z,98254.81
2023-03-11T06:16:29.937Z,98259.88
2023-03-11T06:19:20.373Z,98242.63
2023-03-11T06:22:09.757Z,98236.28
2023-03-11T06:24:56.104Z,98257.97
2023-03-11T06:27:44.638Z,98240.34
2023-03-11T06:30:31.241Z,98255.31
2023-03-11T06:33:44.123Z,98280.41
2023-03-11T06:36:30.726Z,98271.72
2023-03-11T06:39:18.021Z,98259.75
2023-03-11T06:42:11.292Z,98286.34
2023-03-11T06:44:58.050Z,98285.25
2023-03-11T06:47:44.850Z,98282.59
2023-03-11T06:50:31.476Z,98291.50
2023-03-11T06:53:21.378Z,98282.22
2023-03-11T06:56:12.687Z,98277.28
2023-03-11T06:59:05.064Z,98297.81
2023-03-11T07:01:54.740Z,98320.50
2023-03-11T07:04:41.329Z,98288.78
2023-03-11T07:07:27.863Z,98328.47
2023-03-11T07:10:14.977Z,98301.78
2023-03-11T07:13:01.516Z,98328.34
2023-03-11T07:15:48.028Z,98331.75
2023-03-11T07:18:36.165Z,98297.38
2023-03-11T07:21:23.755Z,98347.25
2023-03-11T07:24:13.037Z,98314.38
2023-03-11T07:26:59.166Z,98290.16
2023-03-11T07:29:45.595Z,98287.38
2023-03-11T07:32:32.230Z,98320.16
2023-03-11T07:35:18.863Z,98345.75
2023-03-11T07:38:05.471Z,98278.66
2023-03-11T07:40:59.433Z,98372.03
2023-03-11T07:43:45.916Z,98348.09
2023-03-11T07:46:32.775Z,98377.84
2023-03-11T07:49:19.941Z,98356.50
2023-03-11T07:52:06.701Z,98381.75
2023-03-11T07:54:52.931Z,98375.75
2023-03-11T07:57:39.296Z,98378.47
2023-03-11T08:00:25.521Z,98332.00
2023-03-11T08:03:11.645Z,98352.78
2023-03-11T08:05:58.124Z,98387.69
2023-03-11T08:08:45.109Z,98353.97
2023-03-11T08:11:31.883Z,98396.03
2023-03-11T08:14:17.958Z,98404.69
2023-03-11T08:17:04.592Z,98373.59
2023-03-11T08:19:50.757Z,98370.28
2023-03-11T08:22:41.239Z,98403.38
2023-03-11T08:25:38.875Z,98405.25
2023-03-11T08:28:25.381Z,98405.66
2023-03-11T08:31:24.287Z,98369.63
2023-03-11T08:34:11.576Z,98414.38
2023-03-11T08:36:57.973Z,98395.72
2023-03-11T08:39:44.384Z,98408.84
2023-03-11T08:42:30.862Z,98422.75
2023-03-11T08:45:17.150Z,98390.06
2023-03-11T08:48:03.842Z,98422.06
2023-03-11T08:50:54.212Z,98423.03
2023-03-11T08:53:41.327Z,98415.59
2023-03-11T08:56:28.088Z,98437.56
2023-03-11T08:59:14.806Z,98415.59
2023-03-11T09:02:01.390Z,98430.63
2023-03-11T09:04:47.779Z,98392.88
2023-03-11T09:07:33.987Z,98348.66
2023-03-11T09:10:20.604Z,98390.84
2023-03-11T09:13:06.841Z,98398.03
2023-03-11T09:15:53.554Z,98435.09
2023-03-11T09:18:39.930Z,98437.75
2023-03-11T09:21:26.333Z,98420.06
2023-03-11T09:24:12.429Z,98439.84
2023-03-11T09:26:58.916Z,98391.66
2023-03-11T09:29:45.315Z,98450.88
2023-03-11T09:32:31.634Z,98390.31
2023-03-11T09:35:18.212Z,98367.75
2023-03-11T09:38:04.349Z,98414.25
2023-03-11T09:41:07.996Z,98417.66
2023-03-11T09:44:16.447Z,98434.09
2023-03-11T09:47:12.260Z,98438.94
2023-03-11T09:50:18.267Z,98436.38
2023-03-11T09:53:33.167Z,98443.88
2023-03-11T09:56:22.299Z,98424.06
2023-03-11T09:59:30.618Z,98425.22
2023-03-11T10:02:22.750Z,98442.50
2023-03-11T10:05:36.330Z,98441.03
2023-03-11T10:08:28.179Z,98446.28
2023-03-11T10:11:27.792Z,98439.41
2023-03-11T10:14:47.585Z,98427.63
2023-03-11T10:18:09.406Z,98447.63
2023-03-11T10:21:25.602Z,98451.22
2023-03-11T10:24:31.501Z,98439.28
2023-03-11T10:27:25.041Z,98442.19
2023-03-11T10:30:29.882Z,98439.34
2023-03-11T10:33:46.583Z,98385.69
2023-03-11T10:36:50.560Z,98411.84
2023-03-11T10:39:38.042Z,98414.66
2023-03-11T10:42:28.772Z,98417.28
2023-03-11T10:45:15.551Z,98412.97
2023-03-11T10:48:01.859Z,98413.44
2023-03-11T10:51:01.000Z,98431.31
2023-03-11T10:53:50.419Z,98399.13
2023-03-11T10:56:39.518Z,98400.69
2023-03-11T10:59:28.406Z,98435.69
2023-03-11T11:02:28.278Z,98442.13
2023-03-11T11:05:17.897Z,98448.22
2023-03-11T11:08:15.932Z,98449.13
2023-03-11T11:11:04.179Z,98447.78
2023-03-11T11:13:58.350Z,98448.34
2023-03-11T11:16:52.246Z,98394.69
2023-03-11T11:19:45.051Z,98410.28
2023-03-11T11:22:32.204Z,98451.06
2023-03-11T11:25:40.777Z,98443.41
2023-03-11T11:28:28.126Z,98416.00
2023-03-11T11:31:25.179Z,98433.22
2023-03-11T11:34:32.906Z,98433.13
2023-03-11T11:37:20.793Z,98416.88
2023-03-11T11:40:17.322Z,98431.47
2023-03-11T11:43:12.282Z,98322.22
2023-03-11T11:46:03.963Z,98439.06
2023-03-11T11:49:20.858Z,98418.19
2023-03-11T11:52:14.158Z,98443.22
2023-03-11T11:55:21.149Z,98419.25
2023-03-11T11:58:12.180Z,98383.94
2023-03-11T12:01:10.183Z,98361.41
2023-03-11T12:04:08.617Z,98424.28
2023-03-11T12:07:11.957Z,98389.19
2023-03-11T12:10:22.254Z,98409.06
2023-03-11T12:13:29.141Z,98377.03
2023-03-11T12:16:34.176Z,98416.38
2023-03-11T12:19:37.250Z,98399.94
2023-03-11T12:22:46.849Z,98374.16
2023-03-11T12:26:08.831Z,98399.09
2023-03-11T12:29:00.348Z,98380.22
2023-03-11T12:31:47.672Z,98398.25
2023-03-11T12:34:35.962Z,98360.56
2023-03-11T12:37:23.443Z,98375.97
2023-03-11T12:40:41.064Z,98405.19
2023-03-11T12:43:47.350Z,98402.66
2023-03-11T12:46:59.007Z,98396.59
2023-03-11T12:49:47.593Z,98331.41
2023-03-11T12:52:52.690Z,98383.28
2023-03-11T12:55:39.846Z,98365.28
2023-03-11T12:58:55.749Z,98394.31
2023-03-11T13:02:19.767Z,98332.56
2023-03-11T13:05:43.694Z,98377.28
2023-03-11T13:08:46.216Z,98370.59
2023-03-11T13:11:32.713Z,98375.81
2023-03-11T13:14:26.347Z,98387.81
2023-03-11T13:17:27.946Z,98381.81
2023-03-11T13:20:39.169Z,98375.81
2023-03-11T13:23:30.536Z,98389.53
2023-03-11T13:26:29.221Z,98386.13
2023-03-11T13:29:38.963Z,98335.50
2023-03-11T13:32:36.210Z,98381.78
2023-03-11T13:35:39.372Z,98381.69
2023-03-11T13:38:42.856Z,98366.31
2023-03-11T13:41:37.256Z,98352.66
2023-03-11T13:44:31.593Z,98394.63
2023-03-11T13:47:20.339Z,98374.06
2023-03-11T13:50:40.547Z,98359.50
2023-03-11T13:53:43.628Z,98341.47
2023-03-11T13:56:37.761Z,98385.22
2023-03-11T13:59:28.417Z,98338.88
2023-03-11T14:02:19.133Z,98393.75
2023-03-11T14:05:16.295Z,98393.81
2023-03-11T14:08:29.510Z,98394.69
2023-03-11T14:11:17.330Z,98411.00
2023-03-11T14:14:31.009Z,98387.81
2023-03-11T14:17:20.332Z,98404.03
2023-03-11T14:20:20.079Z,98364.53
2023-03-11T14:23:18.462Z,98388.63
2023-03-11T14:26:13.242Z,98390.38
2023-03-11T14:29:02.336Z,98386.94
2023-03-11T14:31:48.697Z,98378.38
2023-03-11T14:34:40.413Z,98374.91
2023-03-11T14:37:36.529Z,98362.06
2023-03-11T14:40:29.441Z,98375.78
2023-03-11T14:43:15.928Z,98333.72
2023-03-11T14:46:03.484Z,98347.47
2023-03-11T14:48:50.412Z,98384.41
2023-03-11T14:51:37.205Z,98380.91
2023-03-11T14:54:28.495Z,98390.38
2023-03-11T14:57:24.120Z,98366.38
2023-03-11T15:00:18.726Z,98380.09
2023-03-11T15:03:37.742Z,98402.41
2023-03-11T15:06:27.802Z,98385.28
2023-03-11T15:09:20.763Z,98408.41
2023-03-11T15:12:07.531Z,98391.16
2023-03-11T15:14:54.082Z,98417.78
2023-03-11T15:17:53.143Z,98403.13
2023-03-11T15:20:39.792Z,98395.97
2023-03-11T15:23:26.115Z,98390.75
2023-03-11T15:26:21.673Z,98393.28
2023-03-11T15:29:16.796Z,98405.53
2023-03-11T15:32:24.102Z,98427.88
2023-03-11T15:35:14.128Z,98420.25
2023-03-11T15:38:25.451Z,98409.06
2023-03-11T15:41:11.784Z,98390.19
2023-03-11T15:44:01.967Z,98401.31
2023-03-11T15:46:48.366Z,98392.63
2023-03-11T15:49:34.770Z,98407.09
2023-03-11T15:52:21.592Z,98442.25
2023-03-11T15:55:09.607Z,98437.72
2023-03-11T15:58:05.247Z,98432.44
2023-03-11T16:00:55.922Z,98411.72
2023-03-11T16:03:42.407Z,98428.06
2023-03-11T16:06:28.783Z,98436.63
2023-03-11T16:09:16.107Z,98418.50
2023-03-11T16:12:13.974Z,98409.09
2023-03-11T16:15:00.407Z,98399.66
2023-03-11T16:17:50.026Z,98403.09
2023-03-11T16:20:49.902Z,98427.09
2023-03-11T16:23:50.635Z,98370.31
2023-03-11T16:26:37.999Z,98403.00
2023-03-11T16:29:24.230Z,98416.75
2023-03-11T16:32:11.394Z,98423.50
2023-03-11T16:34:57.920Z,98425.16
2023-03-11T16:37:44.464Z,98460.91
2023-03-11T16:40:32.617Z,98436.78
2023-03-11T16:43:18.797Z,98422.16
2023-03-11T16:46:05.662Z,98415.81
2023-03-11T16:48:53.484Z,98436.41
2023-03-11T16:51:39.668Z,98449.97
2023-03-11T16:54:25.956Z,98440.38
2023-03-11T16:57:12.290Z,98460.00
2023-03-11T16:59:58.865Z,98444.50
2023-03-11T17:02:45.517Z,98477.50
2023-03-11T17:05:31.831Z,98478.84
2023-03-11T17:08:18.294Z,98473.72
2023-03-11T17:11:04.718Z,98490.16
2023-03-11T17:13:51.394Z,98494.91
2023-03-11T17:16:37.535Z,98491.38
2023-03-11T17:19:24.534Z,98503.09
2023-03-11T17:22:12.027Z,98512.38
2023-03-11T17:24:58.651Z,98520.78
2023-03-11T17:27:45.305Z,98511.88
2023-03-11T17:30:37.228Z,98526.25
2023-03-11T17:33:24.001Z,98516.47
2023-03-11T17:36:14.731Z,98508.16
2023-03-11T17:39:01.143Z,98519.53
2023-03-11T17:41:48.023Z,98522.44
2023-03-11T17:44:50.176Z,98513.47
2023-03-11T17:47:37.754Z,98546.56
2023-03-11T17:50:26.173Z,98532.25
2023-03-11T17:53:12.672Z,98553.66
2023-03-11T17:55:59.990Z,98557.50
2023-03-11T17:58:46.939Z,98567.09
2023-03-11T18:01:33.378Z,98552.56
2023-03-11T18:04:19.983Z,98566.50
2023-03-11T18:07:06.176Z,98561.25
2023-03-11T18:09:53.525Z,98562.00
2023-03-11T18:12:44.118Z,98581.75
2023-03-11T18:15:30.383Z,98545.97
2023-03-11T18:18:16.778Z,98577.56
2023-03-11T18:21:04.947Z,98566.72
2023-03-11T18:23:56.215Z,98592.47
2023-03-11T18:26:42.704Z,98605.84
2023-03-11T18:29:29.221Z,98591.00
2023-03-11T18:32:16.597Z,98612.16
2023-03-11T18:35:03.113Z,98614.25
2023-03-11T18:37:49.402Z,98604.34
2023-03-11T18:40:35.899Z,98612.38
2023-03-11T18:43:22.268Z,98610.25
2023-03-11T18:46:11.201Z,98620.03
2023-03-11T18:48:59.202Z,98574.63
2023-03-11T18:51:45.612Z,98617.44
2023-03-11T18:54:31.883Z,98612.75
2023-03-11T18:57:18.419Z,98572.69
2023-03-11T19:00:05.280Z,98600.03
2023-03-11T19:02:54.715Z,98622.25
2023-03-11T19:05:48.955Z,98599.25
2023-03-11T19:08:36.764Z,98600.13
2023-03-11T19:11:24.755Z,98631.59
2023-03-11T19:14:11.591Z,98602.31
2023-03-11T19:16:58.166Z,98643.59
2023-03-11T19:19:44.406Z,98594.94
2023-03-11T19:22:30.704Z,98645.59
2023-03-11T19:25:16.977Z,98627.84
2023-03-11T19:28:03.618Z,98653.47
2023-03-11T19:30:52.292Z,98659.44
2023-03-11T19:33:39.250Z,98635.81
2023-03-11T19:36:27.496Z,98665.16
2023-03-11T19:39:14.271Z,98663.16
2023-03-11T19:42:01.069Z,98597.31
2023-03-11T19:44:47.503Z,98666.34
2023-03-11T19:47:33.874Z,98651.47
2023-03-11T19:50:20.366Z,98661.94
2023-03-11T19:53:06.412Z,98653.03
2023-03-11T19:55:54.978Z,98630.31
2023-03-11T19:58:42.654Z,98626.09
2023-03-11T20:01:31.360Z,98647.38
2023-03-11T20:04:18.028Z,98659.38
2023-03-11T20:07:05.166Z,98665.19
2023-03-11T20:09:51.564Z,98704.47
2023-03-11T20:12:38.113Z,98699.13
2023-03-11T20:15:24.453Z,98684.59
2023-03-11T20:18:11.198Z,98705.53
2023-03-11T20:20:57.636Z,98657.78
2023-03-11T20:23:44.008Z,98688.00
2023-03-11T20:26:30.545Z,98694.03
2023-03-11T20:29:16.674Z,98713.59
2023-03-11T20:32:04.426Z,98702.56
2023-03-11T20:34:50.750Z,98713.09
2023-03-11T20:37:37.259Z,98701.38
2023-03-11T20:40:23.552Z,98666.19
2023-03-11T20:43:09.937Z,98726.47
2023-03-11T20:45:57.968Z,98701.47
2023-03-11T20:48:44.737Z,98740.47
2023-03-11T20:51:31.005Z,98725.50
2023-03-11T20:54:17.870Z,98704.97
2023-03-11T20:57:04.497Z,98742.00
2023-03-11T20:59:51.273Z,98690.66
2023-03-11T21:02:41.759Z,98746.72
2023-03-11T21:05:28.186Z,98745.06
2023-03-11T21:08:14.844Z,98707.69
2023-03-11T21:11:01.706Z,98753.03
2023-03-11T21:13:48.656Z,98748.59
2023-03-11T21:16:37.208Z,98743.25
2023-03-11T21:19:24.034Z,98684.53
2023-03-11T21:22:11.876Z,98743.50
2023-03-11T21:24:58.098Z,98711.88
2023-03-11T21:27:44.782Z,98666.56
2023-03-11T21:30:31.110Z,98714.44
2023-03-11T21:33:17.693Z,98740.34
2023-03-11T21:36:04.566Z,98730.00
2023-03-11T21:38:51.547Z,98711.78
2023-03-11T21:41:38.027Z,98746.22
2023-03-11T21:44:24.423Z,98728.31
2023-03-11T21:47:11.274Z,98754.19
2023-03-11T21:49:57.747Z,98711.78
2023-03-11T21:52:44.450Z,98716.84
2023-03-11T21:55:32.619Z,98745.09
2023-03-11T21:58:19.534Z,98745.78
2023-03-11T22:01:07.025Z,98738.09
2023-03-11T22:03:53.635Z,98715.66
2023-03-11T22:06:40.240Z,98727.28
2023-03-11T22:09:27.063Z,98686.44
2023-03-11T22:12:13.648Z,98731.97
2023-03-11T22:15:00.094Z,98728.75
2023-03-11T22:17:46.579Z,98727.34
2023-03-11T22:20:33.117Z,98735.66
2023-03-11T22:23:19.310Z,98719.25
2023-03-11T22:26:06.190Z,98714.63
2023-03-11T22:28:52.423Z,98713.19
2023-03-11T22:31:38.978Z,98733.97
2023-03-11T22:34:25.303Z,98684.03
2023-03-11T22:37:11.592Z,98730.84
2023-03-11T22:39:57.841Z,98726.34
2023-03-11T22:42:44.281Z,98748.75
2023-03-11T22:45:30.744Z,98716.66
2023-03-11T22:48:16.994Z,98703.94
2023-03-11T22:51:03.618Z,98753.22
2023-03-11T22:53:50.064Z,98746.09
2023-03-11T22:56:36.661Z,98715.50
2023-03-11T22:59:23.123Z,98763.66
2023-03-11T23:02:09.329Z,98749.22
2023-03-11T23:04:55.746Z,98730.38
2023-03-11T23:07:42.493Z,98768.38
2023-03-11T23:10:28.813Z,98734.16
2023-03-11T23:13:15.707Z,98763.94
2023-03-11T23:16:09.044Z,98721.88
2023-03-11T23:18:55.958Z,98764.72
2023-03-11T23:21:42.146Z,98768.56
2023-03-11T23:24:28.459Z,98763.66
2023-03-11T23:27:15.023Z,98698.13
2023-03-11T23:30:01.465Z,98750.84
2023-03-11T23:32:47.676Z,98730.97
2023-03-11T23:35:34.441Z,98776.50
2023-03-11T23:38:20.780Z,98722.06
2023-03-11T23:41:13.143Z,98734.41
2023-03-11T23:43:59.570Z,98770.88
2023-03-11T23:46:45.805Z,98722.88
2023-03-11T23:49:32.208Z,98724.91
2023-03-11T23:52:18.753Z,98740.31
2023-03-11T23:55:05.439Z,98726.47
2023-03-11T23:57:51.996Z,98759.69
